PANW Airport Information

Runway Information
Runway 14 Length 3281 ft width 98 ft
Elevation 364 ft Threshold 0 ft Heading 153
Runway 32 Length 3281 ft Width 98 ft
Elevation 321 ft Threshold 0 ft Heading 333
Airport Frequencies
Airport Navaids
Airport Weather Information & NOTAM
ADDS - METARS form results

(1046 UTC 23 May 2019)
Data provider http://aviationweather.gov/metar/data/
 
METAR text: PANW 230956Z AUTO 07008G14KT 10SM CLR 06/01 A2986 RMK AO2 SLP129 T00610011
Conditions at: PANW (NEW STUYAHOK , AK, US) observed 0956 UTC 23 May 2019
Temperature: 6.1°C (43°F)
Dewpoint: 1.1°C (34°F) [RH = 70%]
Pressure (altimeter): 29.86 inches Hg (1011.3 mb)
[Sea-level pressure: 1012.9 mb]
Winds: from the ENE (70 degrees) at 9 MPH (8 knots; 4.1 m/s)
gusting to 16 MPH (14 knots; 7.2 m/s)
Visibility: 10 or more miles (16+ km)
Ceiling: at least 12,000 feet AGL
Clouds: sky clear below 12,000 feet AGL
Weather: automated observation with no human augmentation;
there may or may not be significant weather present at this time